Yuncos, Spain
Current Conditions -  °F | °C
As of 2:00 PM on Thursday 27 Nov 2014 (Local Time) from LEGT Reporting Station
Broken Clouds Broken Clouds  
Wind Chill: 10°   Ceiling: 2000
Heat Index: 10°   Visibility: 6mi
Dew Point:   Wind: 9mph
Humidity: 94%   Direction: 120°ESE
Pressure: 29.53"   Gusts: NA
Location:  40.09°N, 3.87°W
Report Text: LEGT 271300Z 12008KT 090V170 9999 SCT010 BKN020 10/09 Q1000 RERA
Loading
Personal Weather Stations






























Interactive Weather Map New forecast layout! Learn more

10-Day Weather Forecast

Advertisements
Track Severe Weather on mobile